sensor_id;sensor_type;location;lat;lon;timestamp;P1;durP1;ratioP1;P2;durP2;ratioP2
20535;SDS011;10426;49.420;8.390;2022-12-07T00:01:16;9.82;;;8.82;;
20535;SDS011;10426;49.420;8.390;2022-12-07T00:03:45;8.52;;;7.72;;
20535;SDS011;10426;49.420;8.390;2022-12-07T00:06:12;8.43;;;7.63;;
20535;SDS011;10426;49.420;8.390;2022-12-07T00:08:39;7.18;;;6.60;;
20535;SDS011;10426;49.420;8.390;2022-12-07T00:11:07;6.85;;;6.30;;
20535;SDS011;10426;49.420;8.390;2022-12-07T00:13:35;7.10;;;6.50;;
20535;SDS011;10426;49.420;8.390;2022-12-07T00:16:02;6.95;;;6.35;;
20535;SDS011;10426;49.420;8.390;2022-12-07T00:18:28;6.75;;;6.22;;
20535;SDS011;10426;49.420;8.390;2022-12-07T00:20:58;6.45;;;5.85;;
20535;SDS011;10426;49.420;8.390;2022-12-07T00:23:25;6.55;;;5.95;;
20535;SDS011;10426;49.420;8.390;2022-12-07T00:25:52;6.70;;;6.20;;
20535;SDS011;10426;49.420;8.390;2022-12-07T00:28:20;6.38;;;5.88;;
20535;SDS011;10426;49.420;8.390;2022-12-07T00:30:46;6.60;;;6.00;;
20535;SDS011;10426;49.420;8.390;2022-12-07T00:33:13;6.03;;;5.53;;
20535;SDS011;10426;49.420;8.390;2022-12-07T00:35:39;6.70;;;6.20;;
20535;SDS011;10426;49.420;8.390;2022-12-07T00:38:06;6.47;;;5.88;;
20535;SDS011;10426;49.420;8.390;2022-12-07T00:40:33;6.53;;;6.03;;
20535;SDS011;10426;49.420;8.390;2022-12-07T00:42:59;7.18;;;6.57;;
20535;SDS011;10426;49.420;8.390;2022-12-07T00:45:27;7.18;;;6.57;;
20535;SDS011;10426;49.420;8.390;2022-12-07T00:47:54;7.00;;;6.40;;
20535;SDS011;10426;49.420;8.390;2022-12-07T00:50:21;7.10;;;6.50;;
20535;SDS011;10426;49.420;8.390;2022-12-07T00:52:47;7.10;;;6.50;;
20535;SDS011;10426;49.420;8.390;2022-12-07T00:55:14;6.68;;;6.07;;
20535;SDS011;10426;49.420;8.390;2022-12-07T00:57:40;6.70;;;6.10;;
20535;SDS011;10426;49.420;8.390;2022-12-07T01:00:07;7.22;;;6.53;;
20535;SDS011;10426;49.420;8.390;2022-12-07T01:02:36;6.28;;;5.78;;
20535;SDS011;10426;49.420;8.390;2022-12-07T01:05:02;6.60;;;6.10;;
20535;SDS011;10426;49.420;8.390;2022-12-07T01:07:29;6.68;;;6.07;;
20535;SDS011;10426;49.420;8.390;2022-12-07T01:09:56;6.40;;;5.85;;
20535;SDS011;10426;49.420;8.390;2022-12-07T01:12:22;6.18;;;5.60;;
20535;SDS011;10426;49.420;8.390;2022-12-07T01:14:49;6.35;;;5.85;;
20535;SDS011;10426;49.420;8.390;2022-12-07T01:17:16;6.57;;;6.03;;
20535;SDS011;10426;49.420;8.390;2022-12-07T01:19:44;6.13;;;5.63;;
20535;SDS011;10426;49.420;8.390;2022-12-07T01:22:10;6.53;;;5.93;;
20535;SDS011;10426;49.420;8.390;2022-12-07T01:24:37;6.65;;;6.15;;
20535;SDS011;10426;49.420;8.390;2022-12-07T01:27:04;6.43;;;5.82;;
20535;SDS011;10426;49.420;8.390;2022-12-07T01:29:30;6.13;;;5.53;;
20535;SDS011;10426;49.420;8.390;2022-12-07T01:31:57;6.00;;;5.50;;
20535;SDS011;10426;49.420;8.390;2022-12-07T01:34:23;5.60;;;5.10;;
20535;SDS011;10426;49.420;8.390;2022-12-07T01:36:51;6.10;;;5.60;;
20535;SDS011;10426;49.420;8.390;2022-12-07T01:39:18;5.93;;;5.35;;
20535;SDS011;10426;49.420;8.390;2022-12-07T01:41:45;5.85;;;5.32;;
20535;SDS011;10426;49.420;8.390;2022-12-07T01:44:18;6.53;;;6.00;;
20535;SDS011;10426;49.420;8.390;2022-12-07T01:46:45;6.25;;;5.65;;
20535;SDS011;10426;49.420;8.390;2022-12-07T01:49:14;5.50;;;5.00;;
20535;SDS011;10426;49.420;8.390;2022-12-07T01:51:42;5.80;;;5.30;;
20535;SDS011;10426;49.420;8.390;2022-12-07T01:54:11;5.57;;;5.18;;
20535;SDS011;10426;49.420;8.390;2022-12-07T01:56:38;5.53;;;5.07;;
20535;SDS011;10426;49.420;8.390;2022-12-07T01:59:06;6.20;;;5.70;;
20535;SDS011;10426;49.420;8.390;2022-12-07T02:01:33;6.18;;;5.60;;
20535;SDS011;10426;49.420;8.390;2022-12-07T02:03:59;6.05;;;5.55;;
20535;SDS011;10426;49.420;8.390;2022-12-07T02:06:27;6.22;;;5.63;;
20535;SDS011;10426;49.420;8.390;2022-12-07T02:08:53;5.80;;;5.32;;
20535;SDS011;10426;49.420;8.390;2022-12-07T02:11:21;6.43;;;5.82;;
20535;SDS011;10426;49.420;8.390;2022-12-07T02:13:48;6.20;;;5.70;;
20535;SDS011;10426;49.420;8.390;2022-12-07T02:16:21;6.77;;;6.17;;
20535;SDS011;10426;49.420;8.390;2022-12-07T02:18:55;5.93;;;5.53;;
20535;SDS011;10426;49.420;8.390;2022-12-07T02:21:25;7.05;;;6.10;;
20535;SDS011;10426;49.420;8.390;2022-12-07T02:29:37;6.47;;;5.97;;
20535;SDS011;10426;49.420;8.390;2022-12-07T02:32:06;6.32;;;5.82;;
20535;SDS011;10426;49.420;8.390;2022-12-07T02:34:37;6.43;;;5.90;;
20535;SDS011;10426;49.420;8.390;2022-12-07T02:37:16;6.53;;;5.95;;
20535;SDS011;10426;49.420;8.390;2022-12-07T02:39:44;7.57;;;6.78;;
20535;SDS011;10426;49.420;8.390;2022-12-07T02:42:13;6.10;;;5.60;;
20535;SDS011;10426;49.420;8.390;2022-12-07T02:44:43;6.28;;;5.78;;
20535;SDS011;10426;49.420;8.390;2022-12-07T02:47:11;5.87;;;5.37;;
20535;SDS011;10426;49.420;8.390;2022-12-07T02:49:39;6.20;;;5.60;;
20535;SDS011;10426;49.420;8.390;2022-12-07T02:52:06;5.80;;;5.35;;
20535;SDS011;10426;49.420;8.390;2022-12-07T02:54:32;5.70;;;5.23;;
20535;SDS011;10426;49.420;8.390;2022-12-07T02:57:00;6.20;;;5.70;;
20535;SDS011;10426;49.420;8.390;2022-12-07T02:59:30;5.77;;;5.37;;
20535;SDS011;10426;49.420;8.390;2022-12-07T03:02:04;6.07;;;5.57;;
20535;SDS011;10426;49.420;8.390;2022-12-07T03:04:38;5.68;;;5.15;;
20535;SDS011;10426;49.420;8.390;2022-12-07T03:07:10;6.25;;;5.75;;
20535;SDS011;10426;49.420;8.390;2022-12-07T03:09:40;6.22;;;5.72;;
20535;SDS011;10426;49.420;8.390;2022-12-07T03:12:10;5.93;;;5.47;;
20535;SDS011;10426;49.420;8.390;2022-12-07T03:14:40;6.07;;;5.57;;
20535;SDS011;10426;49.420;8.390;2022-12-07T03:17:10;5.90;;;5.30;;
20535;SDS011;10426;49.420;8.390;2022-12-07T03:19:37;5.80;;;5.30;;
20535;SDS011;10426;49.420;8.390;2022-12-07T03:22:05;5.93;;;5.53;;
20535;SDS011;10426;49.420;8.390;2022-12-07T03:24:33;6.03;;;5.47;;
20535;SDS011;10426;49.420;8.390;2022-12-07T03:27:02;5.80;;;5.40;;
20535;SDS011;10426;49.420;8.390;2022-12-07T03:29:33;6.03;;;5.53;;
20535;SDS011;10426;49.420;8.390;2022-12-07T03:32:01;6.10;;;5.60;;
20535;SDS011;10426;49.420;8.390;2022-12-07T03:34:31;6.18;;;5.68;;
20535;SDS011;10426;49.420;8.390;2022-12-07T03:37:00;6.10;;;5.60;;
20535;SDS011;10426;49.420;8.390;2022-12-07T03:39:28;5.80;;;5.40;;
20535;SDS011;10426;49.420;8.390;2022-12-07T03:41:57;5.85;;;5.32;;
20535;SDS011;10426;49.420;8.390;2022-12-07T03:44:24;5.82;;;5.32;;
20535;SDS011;10426;49.420;8.390;2022-12-07T03:46:52;6.13;;;5.10;;
20535;SDS011;10426;49.420;8.390;2022-12-07T03:49:25;5.15;;;4.75;;
20535;SDS011;10426;49.420;8.390;2022-12-07T03:51:54;5.20;;;4.80;;
20535;SDS011;10426;49.420;8.390;2022-12-07T03:54:23;5.40;;;5.00;;
20535;SDS011;10426;49.420;8.390;2022-12-07T03:56:51;4.97;;;4.47;;
20535;SDS011;10426;49.420;8.390;2022-12-07T03:59:18;5.53;;;5.07;;
20535;SDS011;10426;49.420;8.390;2022-12-07T04:01:51;5.28;;;4.90;;
20535;SDS011;10426;49.420;8.390;2022-12-07T04:04:18;5.15;;;4.80;;
20535;SDS011;10426;49.420;8.390;2022-12-07T04:06:45;5.70;;;5.20;;
20535;SDS011;10426;49.420;8.390;2022-12-07T04:09:13;5.57;;;5.18;;
20535;SDS011;10426;49.420;8.390;2022-12-07T04:11:40;5.57;;;5.07;;
20535;SDS011;10426;49.420;8.390;2022-12-07T04:14:06;5.70;;;5.22;;
20535;SDS011;10426;49.420;8.390;2022-12-07T04:16:45;5.43;;;4.93;;
20535;SDS011;10426;49.420;8.390;2022-12-07T04:19:12;5.65;;;5.22;;
20535;SDS011;10426;49.420;8.390;2022-12-07T04:21:39;5.30;;;4.90;;
20535;SDS011;10426;49.420;8.390;2022-12-07T04:24:06;5.53;;;5.13;;
20535;SDS011;10426;49.420;8.390;2022-12-07T04:26:34;5.50;;;5.00;;
20535;SDS011;10426;49.420;8.390;2022-12-07T04:29:00;5.60;;;5.20;;
20535;SDS011;10426;49.420;8.390;2022-12-07T04:31:27;5.80;;;5.07;;
20535;SDS011;10426;49.420;8.390;2022-12-07T04:33:53;5.70;;;5.20;;
20535;SDS011;10426;49.420;8.390;2022-12-07T04:36:20;5.93;;;5.32;;
20535;SDS011;10426;49.420;8.390;2022-12-07T04:38:47;6.20;;;5.70;;
20535;SDS011;10426;49.420;8.390;2022-12-07T04:41:13;6.17;;;5.67;;
20535;SDS011;10426;49.420;8.390;2022-12-07T04:43:41;5.80;;;5.40;;
20535;SDS011;10426;49.420;8.390;2022-12-07T04:46:08;6.70;;;6.05;;
20535;SDS011;10426;49.420;8.390;2022-12-07T04:48:35;6.97;;;6.27;;
20535;SDS011;10426;49.420;8.390;2022-12-07T04:51:02;6.38;;;5.80;;
20535;SDS011;10426;49.420;8.390;2022-12-07T04:53:28;6.00;;;5.60;;
20535;SDS011;10426;49.420;8.390;2022-12-07T04:55:55;5.80;;;5.35;;
20535;SDS011;10426;49.420;8.390;2022-12-07T04:58:21;6.10;;;5.50;;
20535;SDS011;10426;49.420;8.390;2022-12-07T05:00:49;5.75;;;5.30;;
20535;SDS011;10426;49.420;8.390;2022-12-07T05:03:19;5.60;;;5.18;;
20535;SDS011;10426;49.420;8.390;2022-12-07T05:05:46;5.83;;;5.33;;
20535;SDS011;10426;49.420;8.390;2022-12-07T05:08:13;6.00;;;5.47;;
20535;SDS011;10426;49.420;8.390;2022-12-07T05:10:39;5.82;;;5.38;;
20535;SDS011;10426;49.420;8.390;2022-12-07T05:13:06;5.93;;;5.53;;
20535;SDS011;10426;49.420;8.390;2022-12-07T05:15:33;6.63;;;6.03;;
20535;SDS011;10426;49.420;8.390;2022-12-07T05:18:01;6.43;;;5.93;;
20535;SDS011;10426;49.420;8.390;2022-12-07T05:20:28;6.68;;;6.18;;
20535;SDS011;10426;49.420;8.390;2022-12-07T05:22:55;6.40;;;5.90;;
20535;SDS011;10426;49.420;8.390;2022-12-07T05:25:23;6.65;;;5.97;;
20535;SDS011;10426;49.420;8.390;2022-12-07T05:27:50;7.15;;;6.45;;
20535;SDS011;10426;49.420;8.390;2022-12-07T05:30:17;7.45;;;6.85;;
20535;SDS011;10426;49.420;8.390;2022-12-07T05:32:44;9.80;;;8.43;;
20535;SDS011;10426;49.420;8.390;2022-12-07T05:35:12;11.13;;;9.43;;
20535;SDS011;10426;49.420;8.390;2022-12-07T05:37:38;11.60;;;9.93;;
20535;SDS011;10426;49.420;8.390;2022-12-07T05:40:05;10.73;;;9.25;;
20535;SDS011;10426;49.420;8.390;2022-12-07T05:42:32;10.07;;;9.02;;
20535;SDS011;10426;49.420;8.390;2022-12-07T05:44:59;8.65;;;7.80;;
20535;SDS011;10426;49.420;8.390;2022-12-07T05:47:26;8.45;;;7.75;;
20535;SDS011;10426;49.420;8.390;2022-12-07T05:49:52;8.60;;;7.78;;
20535;SDS011;10426;49.420;8.390;2022-12-07T05:52:20;8.35;;;7.65;;
20535;SDS011;10426;49.420;8.390;2022-12-07T05:54:47;8.10;;;7.30;;
20535;SDS011;10426;49.420;8.390;2022-12-07T05:57:14;7.28;;;6.68;;
20535;SDS011;10426;49.420;8.390;2022-12-07T05:59:40;7.30;;;6.70;;
20535;SDS011;10426;49.420;8.390;2022-12-07T06:02:07;7.70;;;7.10;;
20535;SDS011;10426;49.420;8.390;2022-12-07T06:04:34;8.00;;;7.40;;
20535;SDS011;10426;49.420;8.390;2022-12-07T06:07:01;7.93;;;7.22;;
20535;SDS011;10426;49.420;8.390;2022-12-07T06:09:29;8.23;;;7.63;;
20535;SDS011;10426;49.420;8.390;2022-12-07T06:11:56;8.80;;;8.00;;
20535;SDS011;10426;49.420;8.390;2022-12-07T06:14:40;7.65;;;7.05;;
20535;SDS011;10426;49.420;8.390;2022-12-07T06:17:07;8.48;;;7.78;;
20535;SDS011;10426;49.420;8.390;2022-12-07T06:19:34;9.20;;;8.35;;
20535;SDS011;10426;49.420;8.390;2022-12-07T06:22:00;9.07;;;8.32;;
20535;SDS011;10426;49.420;8.390;2022-12-07T06:24:28;8.32;;;7.63;;
20535;SDS011;10426;49.420;8.390;2022-12-07T06:26:56;8.90;;;8.10;;
20535;SDS011;10426;49.420;8.390;2022-12-07T06:29:22;8.82;;;8.02;;
20535;SDS011;10426;49.420;8.390;2022-12-07T06:31:51;7.57;;;6.53;;
20535;SDS011;10426;49.420;8.390;2022-12-07T06:34:18;7.53;;;6.93;;
20535;SDS011;10426;49.420;8.390;2022-12-07T06:36:45;7.30;;;6.70;;
20535;SDS011;10426;49.420;8.390;2022-12-07T06:39:16;7.55;;;6.88;;
20535;SDS011;10426;49.420;8.390;2022-12-07T06:41:43;7.18;;;6.65;;
20535;SDS011;10426;49.420;8.390;2022-12-07T06:44:11;8.10;;;7.40;;
20535;SDS011;10426;49.420;8.390;2022-12-07T06:46:38;7.85;;;7.15;;
20535;SDS011;10426;49.420;8.390;2022-12-07T06:49:04;7.85;;;7.15;;
20535;SDS011;10426;49.420;8.390;2022-12-07T06:51:32;7.30;;;6.80;;
20535;SDS011;10426;49.420;8.390;2022-12-07T06:54:00;7.90;;;7.22;;
20535;SDS011;10426;49.420;8.390;2022-12-07T06:56:27;8.07;;;7.45;;
20535;SDS011;10426;49.420;8.390;2022-12-07T06:58:54;7.80;;;7.10;;
20535;SDS011;10426;49.420;8.390;2022-12-07T07:01:22;8.00;;;7.30;;
20535;SDS011;10426;49.420;8.390;2022-12-07T07:03:48;8.80;;;7.97;;
20535;SDS011;10426;49.420;8.390;2022-12-07T07:06:15;8.93;;;8.18;;
20535;SDS011;10426;49.420;8.390;2022-12-07T07:08:41;9.93;;;8.95;;
20535;SDS011;10426;49.420;8.390;2022-12-07T07:11:08;8.20;;;7.50;;
20535;SDS011;10426;49.420;8.390;2022-12-07T07:13:35;8.43;;;7.72;;
20535;SDS011;10426;49.420;8.390;2022-12-07T07:16:02;8.40;;;7.60;;
20535;SDS011;10426;49.420;8.390;2022-12-07T07:18:30;9.80;;;8.90;;
20535;SDS011;10426;49.420;8.390;2022-12-07T07:20:57;10.33;;;9.43;;
20535;SDS011;10426;49.420;8.390;2022-12-07T07:23:24;10.52;;;9.50;;
20535;SDS011;10426;49.420;8.390;2022-12-07T07:25:50;8.52;;;7.82;;
20535;SDS011;10426;49.420;8.390;2022-12-07T07:28:17;8.07;;;7.28;;
20535;SDS011;10426;49.420;8.390;2022-12-07T07:30:44;8.10;;;7.30;;
20535;SDS011;10426;49.420;8.390;2022-12-07T07:33:10;7.20;;;6.60;;
20535;SDS011;10426;49.420;8.390;2022-12-07T07:35:39;7.70;;;7.00;;
20535;SDS011;10426;49.420;8.390;2022-12-07T07:38:05;9.00;;;8.10;;
20535;SDS011;10426;49.420;8.390;2022-12-07T07:40:32;11.30;;;10.13;;
20535;SDS011;10426;49.420;8.390;2022-12-07T07:42:59;11.40;;;10.20;;
20535;SDS011;10426;49.420;8.390;2022-12-07T07:45:26;10.32;;;9.43;;
20535;SDS011;10426;49.420;8.390;2022-12-07T07:47:53;8.70;;;7.90;;
20535;SDS011;10426;49.420;8.390;2022-12-07T07:50:20;8.65;;;7.85;;
20535;SDS011;10426;49.420;8.390;2022-12-07T07:52:48;8.07;;;7.30;;
20535;SDS011;10426;49.420;8.390;2022-12-07T07:55:15;8.13;;;7.10;;
20535;SDS011;10426;49.420;8.390;2022-12-07T07:57:42;7.70;;;7.00;;
20535;SDS011;10426;49.420;8.390;2022-12-07T08:00:10;7.70;;;7.10;;
20535;SDS011;10426;49.420;8.390;2022-12-07T08:02:37;7.30;;;6.70;;
20535;SDS011;10426;49.420;8.390;2022-12-07T08:05:03;7.60;;;6.50;;
20535;SDS011;10426;49.420;8.390;2022-12-07T08:07:30;7.60;;;6.78;;
20535;SDS011;10426;49.420;8.390;2022-12-07T08:09:58;7.50;;;6.80;;
20535;SDS011;10426;49.420;8.390;2022-12-07T08:12:25;7.07;;;6.47;;
20535;SDS011;10426;49.420;8.390;2022-12-07T08:14:52;7.32;;;6.70;;
20535;SDS011;10426;49.420;8.390;2022-12-07T08:17:19;7.38;;;6.70;;
20535;SDS011;10426;49.420;8.390;2022-12-07T08:19:45;9.27;;;8.38;;
20535;SDS011;10426;49.420;8.390;2022-12-07T08:22:12;10.80;;;9.80;;
20535;SDS011;10426;49.420;8.390;2022-12-07T08:24:39;9.43;;;8.57;;
20535;SDS011;10426;49.420;8.390;2022-12-07T08:27:07;8.93;;;8.20;;
20535;SDS011;10426;49.420;8.390;2022-12-07T08:29:33;9.55;;;8.57;;
20535;SDS011;10426;49.420;8.390;2022-12-07T08:32:00;8.70;;;7.70;;
20535;SDS011;10426;49.420;8.390;2022-12-07T08:34:27;8.57;;;7.80;;
20535;SDS011;10426;49.420;8.390;2022-12-07T08:36:53;8.23;;;7.53;;
20535;SDS011;10426;49.420;8.390;2022-12-07T08:39:20;8.05;;;7.35;;
20535;SDS011;10426;49.420;8.390;2022-12-07T08:41:46;7.40;;;6.70;;
20535;SDS011;10426;49.420;8.390;2022-12-07T08:44:14;7.97;;;7.17;;
20535;SDS011;10426;49.420;8.390;2022-12-07T08:46:41;7.57;;;6.93;;
20535;SDS011;10426;49.420;8.390;2022-12-07T08:49:11;7.05;;;6.40;;
20535;SDS011;10426;49.420;8.390;2022-12-07T08:51:39;7.00;;;6.40;;
20535;SDS011;10426;49.420;8.390;2022-12-07T08:54:07;8.90;;;6.80;;
20535;SDS011;10426;49.420;8.390;2022-12-07T08:56:35;8.20;;;7.00;;
20535;SDS011;10426;49.420;8.390;2022-12-07T08:59:02;8.40;;;7.53;;
20535;SDS011;10426;49.420;8.390;2022-12-07T09:01:30;8.20;;;7.38;;
20535;SDS011;10426;49.420;8.390;2022-12-07T09:03:57;8.23;;;7.43;;
20535;SDS011;10426;49.420;8.390;2022-12-07T09:06:23;8.20;;;7.50;;
20535;SDS011;10426;49.420;8.390;2022-12-07T09:08:51;8.13;;;7.43;;
20535;SDS011;10426;49.420;8.390;2022-12-07T09:11:20;8.77;;;7.87;;
20535;SDS011;10426;49.420;8.390;2022-12-07T09:13:46;8.13;;;7.43;;
20535;SDS011;10426;49.420;8.390;2022-12-07T09:16:13;8.48;;;7.68;;
20535;SDS011;10426;49.420;8.390;2022-12-07T09:18:41;8.68;;;7.82;;
20535;SDS011;10426;49.420;8.390;2022-12-07T09:21:08;9.03;;;8.17;;
20535;SDS011;10426;49.420;8.390;2022-12-07T09:23:35;8.85;;;8.02;;
20535;SDS011;10426;49.420;8.390;2022-12-07T09:26:02;8.65;;;7.78;;
20535;SDS011;10426;49.420;8.390;2022-12-07T09:28:29;8.43;;;7.63;;
20535;SDS011;10426;49.420;8.390;2022-12-07T09:30:56;8.98;;;7.90;;
20535;SDS011;10426;49.420;8.390;2022-12-07T09:33:23;8.68;;;7.78;;
20535;SDS011;10426;49.420;8.390;2022-12-07T09:35:51;8.55;;;7.50;;
20535;SDS011;10426;49.420;8.390;2022-12-07T09:38:18;8.65;;;7.82;;
20535;SDS011;10426;49.420;8.390;2022-12-07T09:40:45;8.63;;;7.88;;
20535;SDS011;10426;49.420;8.390;2022-12-07T09:43:12;8.55;;;7.75;;
20535;SDS011;10426;49.420;8.390;2022-12-07T09:45:40;8.70;;;7.88;;
20535;SDS011;10426;49.420;8.390;2022-12-07T09:48:09;8.80;;;7.97;;
20535;SDS011;10426;49.420;8.390;2022-12-07T09:50:40;8.70;;;7.88;;
20535;SDS011;10426;49.420;8.390;2022-12-07T09:53:09;8.90;;;8.00;;
20535;SDS011;10426;49.420;8.390;2022-12-07T09:55:36;8.50;;;7.70;;
20535;SDS011;10426;49.420;8.390;2022-12-07T09:58:04;8.77;;;7.97;;
20535;SDS011;10426;49.420;8.390;2022-12-07T10:00:30;9.35;;;8.50;;
20535;SDS011;10426;49.420;8.390;2022-12-07T10:02:58;9.20;;;8.30;;
20535;SDS011;10426;49.420;8.390;2022-12-07T10:05:26;8.50;;;7.70;;
20535;SDS011;10426;49.420;8.390;2022-12-07T10:07:54;8.00;;;7.20;;
20535;SDS011;10426;49.420;8.390;2022-12-07T10:10:23;8.48;;;7.68;;
20535;SDS011;10426;49.420;8.390;2022-12-07T10:12:55;8.88;;;7.43;;
20535;SDS011;10426;49.420;8.390;2022-12-07T10:15:22;7.75;;;6.95;;
20535;SDS011;10426;49.420;8.390;2022-12-07T10:17:49;7.03;;;6.43;;
20535;SDS011;10426;49.420;8.390;2022-12-07T10:20:23;7.20;;;6.50;;
20535;SDS011;10426;49.420;8.390;2022-12-07T10:23:00;6.43;;;5.82;;
20535;SDS011;10426;49.420;8.390;2022-12-07T10:25:29;5.90;;;5.40;;
20535;SDS011;10426;49.420;8.390;2022-12-07T10:27:57;6.03;;;5.53;;
20535;SDS011;10426;49.420;8.390;2022-12-07T10:30:24;5.80;;;5.20;;
20535;SDS011;10426;49.420;8.390;2022-12-07T10:32:51;5.93;;;5.38;;
20535;SDS011;10426;49.420;8.390;2022-12-07T10:35:19;5.53;;;5.03;;
20535;SDS011;10426;49.420;8.390;2022-12-07T10:37:45;6.00;;;5.40;;
20535;SDS011;10426;49.420;8.390;2022-12-07T10:40:23;5.90;;;5.40;;
20535;SDS011;10426;49.420;8.390;2022-12-07T10:43:01;5.90;;;5.40;;
20535;SDS011;10426;49.420;8.390;2022-12-07T10:45:28;5.28;;;4.78;;
20535;SDS011;10426;49.420;8.390;2022-12-07T10:47:55;5.93;;;5.43;;
20535;SDS011;10426;49.420;8.390;2022-12-07T10:53:22;5.53;;;5.03;;
20535;SDS011;10426;49.420;8.390;2022-12-07T10:55:56;6.55;;;5.40;;
20535;SDS011;10426;49.420;8.390;2022-12-07T10:58:34;5.90;;;5.40;;
20535;SDS011;10426;49.420;8.390;2022-12-07T11:01:04;6.30;;;5.35;;
20535;SDS011;10426;49.420;8.390;2022-12-07T11:03:39;6.10;;;5.30;;
20535;SDS011;10426;49.420;8.390;2022-12-07T11:06:12;5.45;;;4.95;;
20535;SDS011;10426;49.420;8.390;2022-12-07T11:08:44;6.90;;;5.82;;
20535;SDS011;10426;49.420;8.390;2022-12-07T11:11:14;6.38;;;5.63;;
20535;SDS011;10426;49.420;8.390;2022-12-07T11:13:46;5.90;;;5.40;;
20535;SDS011;10426;49.420;8.390;2022-12-07T11:16:16;5.95;;;4.88;;
20535;SDS011;10426;49.420;8.390;2022-12-07T11:18:48;5.43;;;4.93;;
20535;SDS011;10426;49.420;8.390;2022-12-07T11:21:19;6.25;;;5.55;;
20535;SDS011;10426;49.420;8.390;2022-12-07T11:23:49;5.50;;;5.00;;
20535;SDS011;10426;49.420;8.390;2022-12-07T11:26:21;5.63;;;5.10;;
20535;SDS011;10426;49.420;8.390;2022-12-07T11:28:56;8.57;;;6.47;;
20535;SDS011;10426;49.420;8.390;2022-12-07T11:31:28;7.13;;;6.43;;
20535;SDS011;10426;49.420;8.390;2022-12-07T11:33:57;6.20;;;5.60;;
20535;SDS011;10426;49.420;8.390;2022-12-07T11:36:31;6.15;;;5.47;;
20535;SDS011;10426;49.420;8.390;2022-12-07T11:39:00;5.80;;;5.20;;
20535;SDS011;10426;49.420;8.390;2022-12-07T11:41:28;5.43;;;4.47;;
20535;SDS011;10426;49.420;8.390;2022-12-07T11:43:58;5.37;;;4.87;;
20535;SDS011;10426;49.420;8.390;2022-12-07T11:46:25;4.72;;;4.40;;
20535;SDS011;10426;49.420;8.390;2022-12-07T11:48:55;5.03;;;4.50;;
20535;SDS011;10426;49.420;8.390;2022-12-07T11:51:24;4.57;;;4.18;;
20535;SDS011;10426;49.420;8.390;2022-12-07T11:53:52;4.75;;;4.10;;
20535;SDS011;10426;49.420;8.390;2022-12-07T11:56:21;4.80;;;4.32;;
20535;SDS011;10426;49.420;8.390;2022-12-07T11:58:50;4.18;;;3.65;;
20535;SDS011;10426;49.420;8.390;2022-12-07T12:01:22;4.38;;;3.97;;
20535;SDS011;10426;49.420;8.390;2022-12-07T12:03:52;4.43;;;4.00;;
20535;SDS011;10426;49.420;8.390;2022-12-07T12:06:20;3.63;;;3.33;;
20535;SDS011;10426;49.420;8.390;2022-12-07T12:08:47;3.70;;;3.40;;
20535;SDS011;10426;49.420;8.390;2022-12-07T12:11:18;3.83;;;3.33;;
20535;SDS011;10426;49.420;8.390;2022-12-07T12:13:54;5.43;;;4.45;;
20535;SDS011;10426;49.420;8.390;2022-12-07T12:16:38;4.10;;;3.70;;
20535;SDS011;10426;49.420;8.390;2022-12-07T12:19:17;3.35;;;3.05;;
20535;SDS011;10426;49.420;8.390;2022-12-07T12:21:46;3.00;;;2.80;;
20535;SDS011;10426;49.420;8.390;2022-12-07T12:24:14;3.47;;;3.17;;
20535;SDS011;10426;49.420;8.390;2022-12-07T12:26:48;3.92;;;3.63;;
20535;SDS011;10426;49.420;8.390;2022-12-07T12:29:19;3.87;;;3.53;;
20535;SDS011;10426;49.420;8.390;2022-12-07T12:32:03;3.42;;;3.13;;
20535;SDS011;10426;49.420;8.390;2022-12-07T12:34:32;4.05;;;3.75;;
20535;SDS011;10426;49.420;8.390;2022-12-07T12:37:00;3.00;;;2.80;;
20535;SDS011;10426;49.420;8.390;2022-12-07T12:39:26;3.28;;;3.05;;
20535;SDS011;10426;49.420;8.390;2022-12-07T12:41:54;3.47;;;3.08;;
20535;SDS011;10426;49.420;8.390;2022-12-07T12:44:39;3.67;;;3.38;;
20535;SDS011;10426;49.420;8.390;2022-12-07T12:47:37;3.60;;;3.17;;
20535;SDS011;10426;49.420;8.390;2022-12-07T12:50:10;3.60;;;3.30;;
20535;SDS011;10426;49.420;8.390;2022-12-07T12:58:34;4.90;;;3.00;;
20535;SDS011;10426;49.420;8.390;2022-12-07T13:03:53;3.75;;;3.42;;
20535;SDS011;10426;49.420;8.390;2022-12-07T13:06:31;3.92;;;3.63;;
20535;SDS011;10426;49.420;8.390;2022-12-07T13:08:59;3.72;;;3.10;;
20535;SDS011;10426;49.420;8.390;2022-12-07T13:11:27;3.65;;;3.25;;
20535;SDS011;10426;49.420;8.390;2022-12-07T13:16:40;3.60;;;3.30;;
20535;SDS011;10426;49.420;8.390;2022-12-07T13:21:53;3.50;;;3.20;;
20535;SDS011;10426;49.420;8.390;2022-12-07T13:24:20;3.13;;;2.85;;
20535;SDS011;10426;49.420;8.390;2022-12-07T13:26:46;5.35;;;3.25;;
20535;SDS011;10426;49.420;8.390;2022-12-07T13:29:14;3.45;;;3.25;;
20535;SDS011;10426;49.420;8.390;2022-12-07T13:31:42;4.10;;;3.70;;
20535;SDS011;10426;49.420;8.390;2022-12-07T13:36:51;4.25;;;3.40;;
20535;SDS011;10426;49.420;8.390;2022-12-07T13:39:20;4.60;;;4.20;;
20535;SDS011;10426;49.420;8.390;2022-12-07T13:41:49;5.00;;;4.47;;
20535;SDS011;10426;49.420;8.390;2022-12-07T13:44:17;5.05;;;4.38;;
20535;SDS011;10426;49.420;8.390;2022-12-07T13:46:46;4.95;;;4.45;;
20535;SDS011;10426;49.420;8.390;2022-12-07T13:49:17;5.03;;;4.07;;
20535;SDS011;10426;49.420;8.390;2022-12-07T13:51:43;5.85;;;4.13;;
20535;SDS011;10426;49.420;8.390;2022-12-07T13:54:11;4.43;;;3.97;;
20535;SDS011;10426;49.420;8.390;2022-12-07T13:56:39;4.20;;;3.80;;
20535;SDS011;10426;49.420;8.390;2022-12-07T13:59:07;3.90;;;3.40;;
20535;SDS011;10426;49.420;8.390;2022-12-07T14:01:37;4.53;;;3.78;;
20535;SDS011;10426;49.420;8.390;2022-12-07T14:04:16;3.10;;;2.80;;
20535;SDS011;10426;49.420;8.390;2022-12-07T14:06:46;3.05;;;2.47;;
20535;SDS011;10426;49.420;8.390;2022-12-07T14:09:18;2.35;;;2.25;;
20535;SDS011;10426;49.420;8.390;2022-12-07T14:11:46;4.20;;;2.60;;
20535;SDS011;10426;49.420;8.390;2022-12-07T14:14:15;3.17;;;2.63;;
20535;SDS011;10426;49.420;8.390;2022-12-07T14:16:43;3.72;;;2.60;;
20535;SDS011;10426;49.420;8.390;2022-12-07T14:22:05;2.95;;;2.75;;
20535;SDS011;10426;49.420;8.390;2022-12-07T14:24:33;4.22;;;3.00;;
20535;SDS011;10426;49.420;8.390;2022-12-07T14:27:16;3.50;;;2.63;;
20535;SDS011;10426;49.420;8.390;2022-12-07T14:29:43;2.70;;;2.50;;
20535;SDS011;10426;49.420;8.390;2022-12-07T14:32:18;3.00;;;2.70;;
20535;SDS011;10426;49.420;8.390;2022-12-07T14:34:58;3.70;;;2.50;;
20535;SDS011;10426;49.420;8.390;2022-12-07T14:37:26;3.47;;;2.50;;
20535;SDS011;10426;49.420;8.390;2022-12-07T14:39:53;3.92;;;2.92;;
20535;SDS011;10426;49.420;8.390;2022-12-07T14:42:21;3.10;;;2.80;;
20535;SDS011;10426;49.420;8.390;2022-12-07T14:44:49;4.85;;;2.70;;
20535;SDS011;10426;49.420;8.390;2022-12-07T14:47:16;4.75;;;2.30;;
20535;SDS011;10426;49.420;8.390;2022-12-07T14:49:43;2.20;;;2.10;;
20535;SDS011;10426;49.420;8.390;2022-12-07T14:52:11;2.50;;;2.30;;
20535;SDS011;10426;49.420;8.390;2022-12-07T14:54:39;3.28;;;2.20;;
20535;SDS011;10426;49.420;8.390;2022-12-07T14:57:07;4.47;;;2.53;;
20535;SDS011;10426;49.420;8.390;2022-12-07T14:59:36;2.92;;;2.60;;
20535;SDS011;10426;49.420;8.390;2022-12-07T15:02:02;3.47;;;2.47;;
20535;SDS011;10426;49.420;8.390;2022-12-07T15:04:29;6.10;;;2.58;;
20535;SDS011;10426;49.420;8.390;2022-12-07T15:06:56;3.00;;;2.70;;
20535;SDS011;10426;49.420;8.390;2022-12-07T15:09:23;3.80;;;2.75;;
20535;SDS011;10426;49.420;8.390;2022-12-07T15:11:50;3.00;;;2.70;;
20535;SDS011;10426;49.420;8.390;2022-12-07T15:14:16;2.72;;;2.53;;
20535;SDS011;10426;49.420;8.390;2022-12-07T15:16:44;3.38;;;3.10;;
20535;SDS011;10426;49.420;8.390;2022-12-07T15:19:12;3.95;;;2.63;;
20535;SDS011;10426;49.420;8.390;2022-12-07T15:21:39;3.65;;;2.90;;
20535;SDS011;10426;49.420;8.390;2022-12-07T15:24:06;4.20;;;2.70;;